sensor_id;sensor_type;location;lat;lon;timestamp;pressure;altitude;pressure_sealevel;temperature
45850;BMP180;10739;52.198;20.908;2022-07-05T00:00:56;100449.00;;;24.00
45850;BMP180;10739;52.198;20.908;2022-07-05T00:03:23;100449.00;;;24.10
45850;BMP180;10739;52.198;20.908;2022-07-05T00:05:49;100448.00;;;23.90
45850;BMP180;10739;52.198;20.908;2022-07-05T00:08:17;100439.00;;;23.80
45850;BMP180;10739;52.198;20.908;2022-07-05T00:10:44;100444.00;;;23.60
45850;BMP180;10739;52.198;20.908;2022-07-05T00:13:11;100448.00;;;23.50
45850;BMP180;10739;52.198;20.908;2022-07-05T00:15:37;100452.00;;;23.60
45850;BMP180;10739;52.198;20.908;2022-07-05T00:18:04;100441.00;;;23.50
45850;BMP180;10739;52.198;20.908;2022-07-05T00:20:30;100442.00;;;23.50
45850;BMP180;10739;52.198;20.908;2022-07-05T00:22:56;100439.00;;;23.40
45850;BMP180;10739;52.198;20.908;2022-07-05T00:25:22;100437.00;;;23.20
45850;BMP180;10739;52.198;20.908;2022-07-05T00:27:48;100445.00;;;23.30
45850;BMP180;10739;52.198;20.908;2022-07-05T00:30:15;100442.00;;;23.60
45850;BMP180;10739;52.198;20.908;2022-07-05T00:32:42;100428.00;;;23.60
45850;BMP180;10739;52.198;20.908;2022-07-05T00:35:08;100435.00;;;23.40
45850;BMP180;10739;52.198;20.908;2022-07-05T00:37:35;100441.00;;;23.60
45850;BMP180;10739;52.198;20.908;2022-07-05T00:40:01;100440.00;;;23.80
45850;BMP180;10739;52.198;20.908;2022-07-05T00:42:28;100448.00;;;23.90
45850;BMP180;10739;52.198;20.908;2022-07-05T00:44:54;100460.00;;;23.90
45850;BMP180;10739;52.198;20.908;2022-07-05T00:47:20;100446.00;;;23.90
45850;BMP180;10739;52.198;20.908;2022-07-05T00:49:46;100460.00;;;23.80
45850;BMP180;10739;52.198;20.908;2022-07-05T00:52:13;100455.00;;;23.60
45850;BMP180;10739;52.198;20.908;2022-07-05T00:54:39;100469.00;;;23.40
45850;BMP180;10739;52.198;20.908;2022-07-05T00:57:06;100469.00;;;23.30
45850;BMP180;10739;52.198;20.908;2022-07-05T00:59:32;100469.00;;;23.30
45850;BMP180;10739;52.198;20.908;2022-07-05T01:01:59;100469.00;;;23.60
45850;BMP180;10739;52.198;20.908;2022-07-05T01:04:25;100461.00;;;23.50
45850;BMP180;10739;52.198;20.908;2022-07-05T01:06:53;100469.00;;;23.40
45850;BMP180;10739;52.198;20.908;2022-07-05T01:09:22;100468.00;;;23.50
45850;BMP180;10739;52.198;20.908;2022-07-05T01:11:49;100470.00;;;23.40
45850;BMP180;10739;52.198;20.908;2022-07-05T01:14:19;100479.00;;;23.30
45850;BMP180;10739;52.198;20.908;2022-07-05T01:16:47;100485.00;;;23.10
45850;BMP180;10739;52.198;20.908;2022-07-05T01:19:13;100492.00;;;23.30
45850;BMP180;10739;52.198;20.908;2022-07-05T01:21:46;100481.00;;;23.10
45850;BMP180;10739;52.198;20.908;2022-07-05T01:24:15;100488.00;;;23.00
45850;BMP180;10739;52.198;20.908;2022-07-05T01:26:45;100492.00;;;22.90
45850;BMP180;10739;52.198;20.908;2022-07-05T01:29:12;100478.00;;;23.00
45850;BMP180;10739;52.198;20.908;2022-07-05T01:31:40;100486.00;;;23.10
45850;BMP180;10739;52.198;20.908;2022-07-05T01:34:07;100482.00;;;22.90
45850;BMP180;10739;52.198;20.908;2022-07-05T01:36:35;100488.00;;;22.60
45850;BMP180;10739;52.198;20.908;2022-07-05T01:39:04;100497.00;;;22.80
45850;BMP180;10739;52.198;20.908;2022-07-05T01:41:31;100489.00;;;22.70
45850;BMP180;10739;52.198;20.908;2022-07-05T01:43:59;100495.00;;;22.70
45850;BMP180;10739;52.198;20.908;2022-07-05T01:46:30;100499.00;;;22.60
45850;BMP180;10739;52.198;20.908;2022-07-05T01:49:06;100503.00;;;22.60
45850;BMP180;10739;52.198;20.908;2022-07-05T01:51:57;100513.00;;;22.70
45850;BMP180;10739;52.198;20.908;2022-07-05T01:54:24;100506.00;;;22.60
45850;BMP180;10739;52.198;20.908;2022-07-05T01:56:51;100506.00;;;22.80
45850;BMP180;10739;52.198;20.908;2022-07-05T01:59:18;100498.00;;;22.70
45850;BMP180;10739;52.198;20.908;2022-07-05T02:01:44;100502.00;;;22.50
45850;BMP180;10739;52.198;20.908;2022-07-05T02:04:11;100497.00;;;22.60
45850;BMP180;10739;52.198;20.908;2022-07-05T02:06:37;100500.00;;;22.60
45850;BMP180;10739;52.198;20.908;2022-07-05T02:09:06;100488.00;;;22.30
45850;BMP180;10739;52.198;20.908;2022-07-05T02:11:33;100500.00;;;22.10
45850;BMP180;10739;52.198;20.908;2022-07-05T02:13:59;100496.00;;;22.60
45850;BMP180;10739;52.198;20.908;2022-07-05T02:16:27;100508.00;;;22.30
45850;BMP180;10739;52.198;20.908;2022-07-05T02:18:53;100505.00;;;22.50
45850;BMP180;10739;52.198;20.908;2022-07-05T02:21:20;100504.00;;;22.40
45850;BMP180;10739;52.198;20.908;2022-07-05T02:23:46;100494.00;;;22.40
45850;BMP180;10739;52.198;20.908;2022-07-05T02:26:13;100499.00;;;22.40
45850;BMP180;10739;52.198;20.908;2022-07-05T02:28:39;100502.00;;;22.20
45850;BMP180;10739;52.198;20.908;2022-07-05T02:31:06;100500.00;;;22.30
45850;BMP180;10739;52.198;20.908;2022-07-05T02:33:33;100498.00;;;22.40
45850;BMP180;10739;52.198;20.908;2022-07-05T02:36:10;100505.00;;;22.40
45850;BMP180;10739;52.198;20.908;2022-07-05T02:38:37;100507.00;;;22.30
45850;BMP180;10739;52.198;20.908;2022-07-05T02:41:08;100509.00;;;22.10
45850;BMP180;10739;52.198;20.908;2022-07-05T02:43:35;100513.00;;;22.00
45850;BMP180;10739;52.198;20.908;2022-07-05T02:46:03;100504.00;;;22.00
45850;BMP180;10739;52.198;20.908;2022-07-05T02:48:29;100498.00;;;22.10
45850;BMP180;10739;52.198;20.908;2022-07-05T02:50:56;100499.00;;;22.20
45850;BMP180;10739;52.198;20.908;2022-07-05T02:53:23;100507.00;;;22.30
45850;BMP180;10739;52.198;20.908;2022-07-05T02:55:49;100515.00;;;22.30
45850;BMP180;10739;52.198;20.908;2022-07-05T02:58:16;100517.00;;;22.40
45850;BMP180;10739;52.198;20.908;2022-07-05T03:00:46;100516.00;;;22.20
45850;BMP180;10739;52.198;20.908;2022-07-05T03:03:14;100521.00;;;22.10
45850;BMP180;10739;52.198;20.908;2022-07-05T03:05:41;100526.00;;;22.30
45850;BMP180;10739;52.198;20.908;2022-07-05T03:08:07;100534.00;;;22.30
45850;BMP180;10739;52.198;20.908;2022-07-05T03:10:34;100547.00;;;22.60
45850;BMP180;10739;52.198;20.908;2022-07-05T03:13:00;100553.00;;;22.70
45850;BMP180;10739;52.198;20.908;2022-07-05T03:15:27;100547.00;;;22.60
45850;BMP180;10739;52.198;20.908;2022-07-05T03:17:53;100553.00;;;22.50
45850;BMP180;10739;52.198;20.908;2022-07-05T03:20:19;100553.00;;;22.10
45850;BMP180;10739;52.198;20.908;2022-07-05T03:22:46;100563.00;;;22.50
45850;BMP180;10739;52.198;20.908;2022-07-05T03:25:12;100549.00;;;22.20
45850;BMP180;10739;52.198;20.908;2022-07-05T03:27:38;100546.00;;;22.50
45850;BMP180;10739;52.198;20.908;2022-07-05T03:30:05;100557.00;;;22.20
45850;BMP180;10739;52.198;20.908;2022-07-05T03:32:31;100556.00;;;22.40
45850;BMP180;10739;52.198;20.908;2022-07-05T03:34:57;100559.00;;;22.50
45850;BMP180;10739;52.198;20.908;2022-07-05T03:37:23;100546.00;;;22.10
45850;BMP180;10739;52.198;20.908;2022-07-05T03:39:50;100553.00;;;22.10
45850;BMP180;10739;52.198;20.908;2022-07-05T03:42:16;100553.00;;;22.00
45850;BMP180;10739;52.198;20.908;2022-07-05T03:44:42;100547.00;;;22.00
45850;BMP180;10739;52.198;20.908;2022-07-05T03:47:08;100535.00;;;22.40
45850;BMP180;10739;52.198;20.908;2022-07-05T03:49:34;100540.00;;;22.40
45850;BMP180;10739;52.198;20.908;2022-07-05T03:52:00;100540.00;;;22.50
45850;BMP180;10739;52.198;20.908;2022-07-05T03:54:27;100535.00;;;22.20
45850;BMP180;10739;52.198;20.908;2022-07-05T03:56:53;100537.00;;;22.20
45850;BMP180;10739;52.198;20.908;2022-07-05T03:59:19;100546.00;;;22.30
45850;BMP180;10739;52.198;20.908;2022-07-05T04:01:45;100547.00;;;22.30
45850;BMP180;10739;52.198;20.908;2022-07-05T04:04:11;100551.00;;;22.60
45850;BMP180;10739;52.198;20.908;2022-07-05T04:06:37;100544.00;;;22.50
45850;BMP180;10739;52.198;20.908;2022-07-05T04:09:03;100544.00;;;22.20
45850;BMP180;10739;52.198;20.908;2022-07-05T04:11:29;100544.00;;;22.30
45850;BMP180;10739;52.198;20.908;2022-07-05T04:13:56;100555.00;;;22.60
45850;BMP180;10739;52.198;20.908;2022-07-05T04:16:22;100554.00;;;22.80
45850;BMP180;10739;52.198;20.908;2022-07-05T04:18:48;100559.00;;;22.70
45850;BMP180;10739;52.198;20.908;2022-07-05T04:21:14;100566.00;;;22.20
45850;BMP180;10739;52.198;20.908;2022-07-05T04:23:40;100568.00;;;22.50
45850;BMP180;10739;52.198;20.908;2022-07-05T04:26:06;100566.00;;;22.70
45850;BMP180;10739;52.198;20.908;2022-07-05T04:28:33;100570.00;;;23.00
45850;BMP180;10739;52.198;20.908;2022-07-05T04:30:59;100567.00;;;22.80
45850;BMP180;10739;52.198;20.908;2022-07-05T04:33:25;100567.00;;;22.70
45850;BMP180;10739;52.198;20.908;2022-07-05T04:35:51;100572.00;;;22.50
45850;BMP180;10739;52.198;20.908;2022-07-05T04:38:18;100573.00;;;22.90
45850;BMP180;10739;52.198;20.908;2022-07-05T04:40:44;100569.00;;;22.80
45850;BMP180;10739;52.198;20.908;2022-07-05T04:43:10;100574.00;;;22.90
45850;BMP180;10739;52.198;20.908;2022-07-05T04:45:36;100579.00;;;23.20
45850;BMP180;10739;52.198;20.908;2022-07-05T04:48:03;100579.00;;;22.90
45850;BMP180;10739;52.198;20.908;2022-07-05T04:50:29;100574.00;;;22.90
45850;BMP180;10739;52.198;20.908;2022-07-05T04:52:55;100577.00;;;23.00
45850;BMP180;10739;52.198;20.908;2022-07-05T04:55:21;100578.00;;;23.10
45850;BMP180;10739;52.198;20.908;2022-07-05T04:57:47;100571.00;;;23.40
45850;BMP180;10739;52.198;20.908;2022-07-05T05:00:14;100568.00;;;23.30
45850;BMP180;10739;52.198;20.908;2022-07-05T05:02:41;100560.00;;;23.30
45850;BMP180;10739;52.198;20.908;2022-07-05T05:05:08;100558.00;;;23.40
45850;BMP180;10739;52.198;20.908;2022-07-05T05:07:35;100565.00;;;23.50
45850;BMP180;10739;52.198;20.908;2022-07-05T05:10:05;100569.00;;;23.60
45850;BMP180;10739;52.198;20.908;2022-07-05T05:12:31;100572.00;;;23.70
45850;BMP180;10739;52.198;20.908;2022-07-05T05:14:58;100568.00;;;23.60
45850;BMP180;10739;52.198;20.908;2022-07-05T05:17:24;100570.00;;;23.90
45850;BMP180;10739;52.198;20.908;2022-07-05T05:19:50;100571.00;;;23.80
45850;BMP180;10739;52.198;20.908;2022-07-05T05:22:17;100570.00;;;23.30
45850;BMP180;10739;52.198;20.908;2022-07-05T05:24:43;100573.00;;;23.50
45850;BMP180;10739;52.198;20.908;2022-07-05T05:27:09;100570.00;;;23.50
45850;BMP180;10739;52.198;20.908;2022-07-05T05:29:35;100567.00;;;23.80
45850;BMP180;10739;52.198;20.908;2022-07-05T05:32:01;100572.00;;;23.60
45850;BMP180;10739;52.198;20.908;2022-07-05T05:34:27;100576.00;;;24.10
45850;BMP180;10739;52.198;20.908;2022-07-05T05:36:53;100574.00;;;24.10
45850;BMP180;10739;52.198;20.908;2022-07-05T05:39:20;100575.00;;;24.20
45850;BMP180;10739;52.198;20.908;2022-07-05T05:41:45;100581.00;;;24.20
45850;BMP180;10739;52.198;20.908;2022-07-05T05:44:12;100570.00;;;24.50
45850;BMP180;10739;52.198;20.908;2022-07-05T05:46:38;100563.00;;;24.20
45850;BMP180;10739;52.198;20.908;2022-07-05T05:49:04;100560.00;;;24.30
45850;BMP180;10739;52.198;20.908;2022-07-05T05:51:30;100561.00;;;24.40
45850;BMP180;10739;52.198;20.908;2022-07-05T05:53:57;100561.00;;;24.30
45850;BMP180;10739;52.198;20.908;2022-07-05T05:56:23;100542.00;;;24.60
45850;BMP180;10739;52.198;20.908;2022-07-05T05:58:49;100545.00;;;24.80
45850;BMP180;10739;52.198;20.908;2022-07-05T06:01:15;100545.00;;;24.60
45850;BMP180;10739;52.198;20.908;2022-07-05T06:03:42;100552.00;;;24.00
45850;BMP180;10739;52.198;20.908;2022-07-05T06:06:08;100558.00;;;24.20
45850;BMP180;10739;52.198;20.908;2022-07-05T06:08:34;100562.00;;;24.40
45850;BMP180;10739;52.198;20.908;2022-07-05T06:11:01;100561.00;;;24.70
45850;BMP180;10739;52.198;20.908;2022-07-05T06:13:30;100558.00;;;24.80
45850;BMP180;10739;52.198;20.908;2022-07-05T06:15:56;100561.00;;;24.70
45850;BMP180;10739;52.198;20.908;2022-07-05T06:18:23;100567.00;;;24.80
45850;BMP180;10739;52.198;20.908;2022-07-05T06:20:49;100556.00;;;24.80
45850;BMP180;10739;52.198;20.908;2022-07-05T06:23:15;100560.00;;;24.80
45850;BMP180;10739;52.198;20.908;2022-07-05T06:25:42;100562.00;;;25.10
45850;BMP180;10739;52.198;20.908;2022-07-05T06:28:09;100565.00;;;25.00
45850;BMP180;10739;52.198;20.908;2022-07-05T06:30:38;100561.00;;;25.20
45850;BMP180;10739;52.198;20.908;2022-07-05T06:33:05;100569.00;;;24.90
45850;BMP180;10739;52.198;20.908;2022-07-05T06:35:32;100561.00;;;25.40
45850;BMP180;10739;52.198;20.908;2022-07-05T06:38:04;100569.00;;;24.90
45850;BMP180;10739;52.198;20.908;2022-07-05T06:40:41;100554.00;;;25.20
45850;BMP180;10739;52.198;20.908;2022-07-05T06:43:13;100558.00;;;25.40
45850;BMP180;10739;52.198;20.908;2022-07-05T06:45:40;100559.00;;;25.30
45850;BMP180;10739;52.198;20.908;2022-07-05T06:48:10;100570.00;;;25.40
45850;BMP180;10739;52.198;20.908;2022-07-05T06:50:39;100565.00;;;25.50
45850;BMP180;10739;52.198;20.908;2022-07-05T06:53:07;100570.00;;;25.90
45850;BMP180;10739;52.198;20.908;2022-07-05T06:55:33;100557.00;;;26.10
45850;BMP180;10739;52.198;20.908;2022-07-05T06:58:03;100578.00;;;26.20
45850;BMP180;10739;52.198;20.908;2022-07-05T07:00:30;100576.00;;;26.20
45850;BMP180;10739;52.198;20.908;2022-07-05T07:02:58;100588.00;;;26.20
45850;BMP180;10739;52.198;20.908;2022-07-05T07:05:25;100583.00;;;26.60
45850;BMP180;10739;52.198;20.908;2022-07-05T07:07:51;100592.00;;;26.70
45850;BMP180;10739;52.198;20.908;2022-07-05T07:10:37;100586.00;;;26.80
45850;BMP180;10739;52.198;20.908;2022-07-05T07:13:03;100592.00;;;26.90
45850;BMP180;10739;52.198;20.908;2022-07-05T07:15:31;100591.00;;;26.70
45850;BMP180;10739;52.198;20.908;2022-07-05T07:17:57;100591.00;;;27.00
45850;BMP180;10739;52.198;20.908;2022-07-05T07:20:24;100588.00;;;27.20
45850;BMP180;10739;52.198;20.908;2022-07-05T07:22:50;100596.00;;;27.20
45850;BMP180;10739;52.198;20.908;2022-07-05T07:25:17;100597.00;;;27.10
45850;BMP180;10739;52.198;20.908;2022-07-05T07:27:49;100598.00;;;27.30
45850;BMP180;10739;52.198;20.908;2022-07-05T07:30:19;100597.00;;;27.40
45850;BMP180;10739;52.198;20.908;2022-07-05T07:32:46;100591.00;;;27.00
45850;BMP180;10739;52.198;20.908;2022-07-05T07:35:13;100587.00;;;27.20
45850;BMP180;10739;52.198;20.908;2022-07-05T07:37:40;100578.00;;;27.40
45850;BMP180;10739;52.198;20.908;2022-07-05T07:40:07;100586.00;;;27.30
45850;BMP180;10739;52.198;20.908;2022-07-05T07:42:34;100582.00;;;27.40
45850;BMP180;10739;52.198;20.908;2022-07-05T07:45:00;100583.00;;;27.60
45850;BMP180;10739;52.198;20.908;2022-07-05T07:47:31;100573.00;;;27.30
45850;BMP180;10739;52.198;20.908;2022-07-05T07:49:57;100574.00;;;27.50
45850;BMP180;10739;52.198;20.908;2022-07-05T07:52:23;100576.00;;;28.00
45850;BMP180;10739;52.198;20.908;2022-07-05T07:54:50;100574.00;;;28.30
45850;BMP180;10739;52.198;20.908;2022-07-05T07:57:16;100577.00;;;27.90
45850;BMP180;10739;52.198;20.908;2022-07-05T07:59:42;100574.00;;;28.70
45850;BMP180;10739;52.198;20.908;2022-07-05T08:02:08;100571.00;;;29.00
45850;BMP180;10739;52.198;20.908;2022-07-05T08:04:35;100560.00;;;28.70
45850;BMP180;10739;52.198;20.908;2022-07-05T08:07:01;100570.00;;;29.10
45850;BMP180;10739;52.198;20.908;2022-07-05T08:09:30;100573.00;;;29.10
45850;BMP180;10739;52.198;20.908;2022-07-05T08:11:57;100564.00;;;29.40
45850;BMP180;10739;52.198;20.908;2022-07-05T08:14:23;100577.00;;;28.30
45850;BMP180;10739;52.198;20.908;2022-07-05T08:16:50;100579.00;;;28.80
45850;BMP180;10739;52.198;20.908;2022-07-05T08:19:18;100580.00;;;29.10
45850;BMP180;10739;52.198;20.908;2022-07-05T08:22:05;100572.00;;;29.30
45850;BMP180;10739;52.198;20.908;2022-07-05T08:24:39;100586.00;;;29.30
45850;BMP180;10739;52.198;20.908;2022-07-05T08:27:08;100580.00;;;29.50
45850;BMP180;10739;52.198;20.908;2022-07-05T08:29:35;100582.00;;;29.70
45850;BMP180;10739;52.198;20.908;2022-07-05T08:32:02;100576.00;;;30.10
45850;BMP180;10739;52.198;20.908;2022-07-05T08:34:28;100579.00;;;30.40
45850;BMP180;10739;52.198;20.908;2022-07-05T08:36:55;100577.00;;;30.40
45850;BMP180;10739;52.198;20.908;2022-07-05T08:39:21;100579.00;;;29.90
45850;BMP180;10739;52.198;20.908;2022-07-05T08:41:50;100583.00;;;29.60
45850;BMP180;10739;52.198;20.908;2022-07-05T08:44:22;100574.00;;;30.10
45850;BMP180;10739;52.198;20.908;2022-07-05T08:46:51;100582.00;;;30.30
45850;BMP180;10739;52.198;20.908;2022-07-05T08:49:27;100573.00;;;30.50
45850;BMP180;10739;52.198;20.908;2022-07-05T08:51:55;100571.00;;;30.70
45850;BMP180;10739;52.198;20.908;2022-07-05T08:54:23;100574.00;;;31.10
45850;BMP180;10739;52.198;20.908;2022-07-05T08:56:51;100572.00;;;30.10
45850;BMP180;10739;52.198;20.908;2022-07-05T08:59:17;100569.00;;;30.20
45850;BMP180;10739;52.198;20.908;2022-07-05T09:01:46;100567.00;;;30.30
45850;BMP180;10739;52.198;20.908;2022-07-05T09:04:13;100573.00;;;29.90
45850;BMP180;10739;52.198;20.908;2022-07-05T09:06:46;100569.00;;;29.50
45850;BMP180;10739;52.198;20.908;2022-07-05T09:09:13;100582.00;;;29.30
45850;BMP180;10739;52.198;20.908;2022-07-05T09:11:45;100586.00;;;28.80
45850;BMP180;10739;52.198;20.908;2022-07-05T09:14:25;100580.00;;;28.90
45850;BMP180;10739;52.198;20.908;2022-07-05T09:16:52;100580.00;;;29.60
45850;BMP180;10739;52.198;20.908;2022-07-05T09:19:18;100588.00;;;29.60
45850;BMP180;10739;52.198;20.908;2022-07-05T09:21:45;100587.00;;;30.30
45850;BMP180;10739;52.198;20.908;2022-07-05T09:24:12;100589.00;;;30.10
45850;BMP180;10739;52.198;20.908;2022-07-05T09:26:43;100583.00;;;30.00
45850;BMP180;10739;52.198;20.908;2022-07-05T09:29:17;100594.00;;;30.40
45850;BMP180;10739;52.198;20.908;2022-07-05T09:31:47;100590.00;;;30.40
45850;BMP180;10739;52.198;20.908;2022-07-05T09:34:19;100577.00;;;30.70
45850;BMP180;10739;52.198;20.908;2022-07-05T09:37:00;100582.00;;;31.20
45850;BMP180;10739;52.198;20.908;2022-07-05T09:42:16;100573.00;;;30.60
45850;BMP180;10739;52.198;20.908;2022-07-05T09:44:56;100586.00;;;31.20
45850;BMP180;10739;52.198;20.908;2022-07-05T09:47:27;100581.00;;;31.10
45850;BMP180;10739;52.198;20.908;2022-07-05T09:49:58;100573.00;;;31.00
45850;BMP180;10739;52.198;20.908;2022-07-05T09:52:36;100573.00;;;31.20
45850;BMP180;10739;52.198;20.908;2022-07-05T09:55:23;100571.00;;;30.90
45850;BMP180;10739;52.198;20.908;2022-07-05T09:57:49;100566.00;;;30.50
45850;BMP180;10739;52.198;20.908;2022-07-05T10:00:20;100570.00;;;30.80
45850;BMP180;10739;52.198;20.908;2022-07-05T10:02:48;100570.00;;;31.30
45850;BMP180;10739;52.198;20.908;2022-07-05T10:07:52;100565.00;;;30.90
45850;BMP180;10739;52.198;20.908;2022-07-05T10:10:22;100572.00;;;30.70
45850;BMP180;10739;52.198;20.908;2022-07-05T10:12:51;100571.00;;;30.80
45850;BMP180;10739;52.198;20.908;2022-07-05T10:15:24;100569.00;;;30.70
45850;BMP180;10739;52.198;20.908;2022-07-05T10:20:52;100577.00;;;30.50
45850;BMP180;10739;52.198;20.908;2022-07-05T10:23:20;100578.00;;;30.30
45850;BMP180;10739;52.198;20.908;2022-07-05T10:25:49;100583.00;;;30.40
45850;BMP180;10739;52.198;20.908;2022-07-05T10:28:18;100566.00;;;30.70
45850;BMP180;10739;52.198;20.908;2022-07-05T10:30:46;100583.00;;;30.50
45850;BMP180;10739;52.198;20.908;2022-07-05T10:33:13;100579.00;;;30.80
45850;BMP180;10739;52.198;20.908;2022-07-05T10:35:43;100573.00;;;30.80
45850;BMP180;10739;52.198;20.908;2022-07-05T10:38:11;100586.00;;;30.60
45850;BMP180;10739;52.198;20.908;2022-07-05T10:40:41;100586.00;;;30.50
45850;BMP180;10739;52.198;20.908;2022-07-05T10:43:12;100576.00;;;30.70
45850;BMP180;10739;52.198;20.908;2022-07-05T10:45:49;100576.00;;;30.50
45850;BMP180;10739;52.198;20.908;2022-07-05T10:48:24;100577.00;;;30.40
45850;BMP180;10739;52.198;20.908;2022-07-05T10:50:59;100567.00;;;30.70
45850;BMP180;10739;52.198;20.908;2022-07-05T10:53:59;100581.00;;;31.00
45850;BMP180;10739;52.198;20.908;2022-07-05T10:56:15;100577.00;;;30.90
45850;BMP180;10739;52.198;20.908;2022-07-05T10:58:48;100582.00;;;31.00
45850;BMP180;10739;52.198;20.908;2022-07-05T11:01:35;100587.00;;;31.20
45850;BMP180;10739;52.198;20.908;2022-07-05T11:25:33;100561.00;;;31.40
45850;BMP180;10739;52.198;20.908;2022-07-05T11:28:21;100564.00;;;31.10
45850;BMP180;10739;52.198;20.908;2022-07-05T11:30:56;100564.00;;;31.10
45850;BMP180;10739;52.198;20.908;2022-07-05T11:33:41;100555.00;;;30.20
45850;BMP180;10739;52.198;20.908;2022-07-05T11:36:24;100557.00;;;30.20
45850;BMP180;10739;52.198;20.908;2022-07-05T11:39:14;100555.00;;;30.60
45850;BMP180;10739;52.198;20.908;2022-07-05T11:41:45;100556.00;;;30.30
45850;BMP180;10739;52.198;20.908;2022-07-05T11:44:13;100556.00;;;30.40
45850;BMP180;10739;52.198;20.908;2022-07-05T11:46:42;100550.00;;;30.40
45850;BMP180;10739;52.198;20.908;2022-07-05T11:49:08;100550.00;;;29.80
45850;BMP180;10739;52.198;20.908;2022-07-05T11:51:35;100548.00;;;29.80
45850;BMP180;10739;52.198;20.908;2022-07-05T11:54:03;100540.00;;;30.10
45850;BMP180;10739;52.198;20.908;2022-07-05T11:56:29;100543.00;;;30.40
45850;BMP180;10739;52.198;20.908;2022-07-05T11:58:56;100534.00;;;30.10
45850;BMP180;10739;52.198;20.908;2022-07-05T12:01:22;100525.00;;;30.00
45850;BMP180;10739;52.198;20.908;2022-07-05T12:03:56;100536.00;;;30.30
45850;BMP180;10739;52.198;20.908;2022-07-05T12:06:23;100532.00;;;30.10
45850;BMP180;10739;52.198;20.908;2022-07-05T12:09:05;100531.00;;;29.40
45850;BMP180;10739;52.198;20.908;2022-07-05T12:11:32;100526.00;;;29.40
45850;BMP180;10739;52.198;20.908;2022-07-05T12:14:23;100521.00;;;29.90
45850;BMP180;10739;52.198;20.908;2022-07-05T12:17:10;100518.00;;;29.90
45850;BMP180;10739;52.198;20.908;2022-07-05T12:19:36;100520.00;;;29.50
45850;BMP180;10739;52.198;20.908;2022-07-05T12:22:02;100528.00;;;29.90
45850;BMP180;10739;52.198;20.908;2022-07-05T12:24:29;100517.00;;;29.20
45850;BMP180;10739;52.198;20.908;2022-07-05T12:26:55;100522.00;;;29.20
45850;BMP180;10739;52.198;20.908;2022-07-05T12:29:21;100528.00;;;29.10
45850;BMP180;10739;52.198;20.908;2022-07-05T12:32:06;100531.00;;;29.20
45850;BMP180;10739;52.198;20.908;2022-07-05T12:34:35;100525.00;;;29.50
45850;BMP180;10739;52.198;20.908;2022-07-05T12:37:02;100521.00;;;29.30
45850;BMP180;10739;52.198;20.908;2022-07-05T12:39:29;100522.00;;;29.80
45850;BMP180;10739;52.198;20.908;2022-07-05T12:41:55;100526.00;;;29.00
45850;BMP180;10739;52.198;20.908;2022-07-05T12:44:22;100529.00;;;29.80
45850;BMP180;10739;52.198;20.908;2022-07-05T12:46:49;100527.00;;;30.10
45850;BMP180;10739;52.198;20.908;2022-07-05T12:49:15;100531.00;;;29.90
45850;BMP180;10739;52.198;20.908;2022-07-05T12:51:44;100537.00;;;29.80
45850;BMP180;10739;52.198;20.908;2022-07-05T12:54:23;100540.00;;;29.40
45850;BMP180;10739;52.198;20.908;2022-07-05T12:57:14;100541.00;;;29.20
45850;BMP180;10739;52.198;20.908;2022-07-05T13:00:07;100537.00;;;29.10
45850;BMP180;10739;52.198;20.908;2022-07-05T13:02:42;100545.00;;;28.90
45850;BMP180;10739;52.198;20.908;2022-07-05T13:05:21;100543.00;;;28.70
45850;BMP180;10739;52.198;20.908;2022-07-05T13:07:48;100541.00;;;28.30
45850;BMP180;10739;52.198;20.908;2022-07-05T13:10:27;100541.00;;;28.10
45850;BMP180;10739;52.198;20.908;2022-07-05T13:13:00;100544.00;;;28.70
45850;BMP180;10739;52.198;20.908;2022-07-05T13:15:27;100542.00;;;28.40
45850;BMP180;10739;52.198;20.908;2022-07-05T13:17:54;100543.00;;;28.20
45850;BMP180;10739;52.198;20.908;2022-07-05T13:20:20;100540.00;;;28.50
45850;BMP180;10739;52.198;20.908;2022-07-05T13:22:49;100541.00;;;28.10
45850;BMP180;10739;52.198;20.908;2022-07-05T13:25:16;100542.00;;;28.10
45850;BMP180;10739;52.198;20.908;2022-07-05T13:27:46;100542.00;;;27.90
45850;BMP180;10739;52.198;20.908;2022-07-05T13:30:13;100548.00;;;27.80
45850;BMP180;10739;52.198;20.908;2022-07-05T13:32:39;100549.00;;;27.80
45850;BMP180;10739;52.198;20.908;2022-07-05T13:35:06;100543.00;;;27.80
45850;BMP180;10739;52.198;20.908;2022-07-05T13:37:32;100549.00;;;27.20
45850;BMP180;10739;52.198;20.908;2022-07-05T13:39:59;100549.00;;;27.10
45850;BMP180;10739;52.198;20.908;2022-07-05T13:42:25;100544.00;;;27.50
45850;BMP180;10739;52.198;20.908;2022-07-05T13:44:51;100550.00;;;27.60
45850;BMP180;10739;52.198;20.908;2022-07-05T13:47:18;100551.00;;;27.40
45850;BMP180;10739;52.198;20.908;2022-07-05T13:49:44;100554.00;;;27.40
45850;BMP180;10739;52.198;20.908;2022-07-05T13:52:10;100554.00;;;27.40
45850;BMP180;10739;52.198;20.908;2022-07-05T13:54:36;100552.00;;;27.40
45850;BMP180;10739;52.198;20.908;2022-07-05T13:57:03;100561.00;;;27.30
45850;BMP180;10739;52.198;20.908;2022-07-05T13:59:29;100559.00;;;27.10
45850;BMP180;10739;52.198;20.908;2022-07-05T14:01:55;100556.00;;;27.20
45850;BMP180;10739;52.198;20.908;2022-07-05T14:04:22;100554.00;;;26.80
45850;BMP180;10739;52.198;20.908;2022-07-05T14:06:50;100565.00;;;26.90
45850;BMP180;10739;52.198;20.908;2022-07-05T14:09:17;100568.00;;;26.90
45850;BMP180;10739;52.198;20.908;2022-07-05T14:11:43;100557.00;;;27.10
45850;BMP180;10739;52.198;20.908;2022-07-05T14:14:09;100555.00;;;26.90
45850;BMP180;10739;52.198;20.908;2022-07-05T14:16:39;100572.00;;;26.90
45850;BMP180;10739;52.198;20.908;2022-07-05T14:19:05;100582.00;;;26.90
45850;BMP180;10739;52.198;20.908;2022-07-05T14:21:32;100605.00;;;26.30